Aérodrome :
LOGIN :

S'inscrire | Disclaimer

   EN    FR    IT 

 










Légende :    VFR   VFR Marginal   IFR   IFR Intensif   IFR Très Intensif
Visi : 
Plafond : 
>= 8 km
>= 3000ft
5 à 8 km
1000 à 3000 ft
1500m à 5 km
500 à 1000 ft
800 à 1500m
200 à 500 ft
< 800m
< 200 ft
Symboles :   Orages  Brouillard  Fortes neiges  Fortes précipitations  Vent > 20 kt
SIGMETs :   Divers  Orages  Givrage  Turbulence  Onde Orograph.  Cendres Volcan.






- Altitude de l'aérodrome : 97 ft
- Code IATA : EBJ


EKEB - Esbjerg

DERNIER METAR :
  • 090150Z AUTO 35003KT 3500 BR ///////// 17/16 Q1021

METARs EXPIRÉS :
  • 090120Z AUTO 32002KT 4100 BR SCT150/// 17/17 Q1021
  • 090050Z AUTO 34002KT 6000 FEW120/// FEW150/// 17/17 Q1021
  • 090020Z AUTO 36002KT 4800 BR FEW130/// SCT150/// 18/17 Q1021
  • 082350Z AUTO 32002KT 5000 ///////// 18/17 Q1021
  • 082320Z AUTO 04003KT 9000 ///////// 19/18 Q1021

Prévision TAF périmée.



MET'MAP, la Météo Aéronautique d'un coup d'oeil ! - Copyright ORBIFLY Décembre 2007 - Disclaimer

ORBIFLY MET'MAP TEAM :

Programmation & Développement : Alexandra Zaïnal
Sur une idée originale de : Baudouin d'Aumeries
Assistance à la programmation : Marc-Olivier Méhu
Soutien technique & logistique : Manuel Goepfert

Contact : metmap@orbifly.com




SOURCES & CREDITS :

   NOAA